Time;durP1;ratioP1;P1;durP2;ratioP2;P2;SDS_P1;SDS_P2;PMS_P1;PMS_P2;Temp;Humidity;BMP_temperature;BMP_pressure;BME280_temperature;BME280_humidity;BME280_pressure;Samples;Min_cycle;Max_cycle;Signal;HPM_P1;HPM_P2
2023/03/13 00:01:19;;;;;;;11.70;2.93;;;;;;;10.08;73.82;98317.31;5136218;27;42750;-82
2023/03/13 00:03:47;;;;;;;11.03;2.90;;;;;;;9.96;73.65;98304.94;5119539;27;42921;-83
2023/03/13 00:06:14;;;;;;;8.50;2.90;;;;;;;10.07;73.90;98302.38;5118537;27;38734;-82
2023/03/13 00:08:44;;;;;;;9.47;3.33;;;;;;;10.04;73.84;98302.59;5136126;27;41539;-82
2023/03/13 00:11:14;;;;;;;10.13;3.13;;;;;;;10.08;73.67;98315.50;5118690;27;42597;-82
2023/03/13 00:13:42;;;;;;;10.30;2.70;;;;;;;10.03;73.77;98306.19;5118974;27;40979;-82
2023/03/13 00:16:12;;;;;;;12.87;2.90;;;;;;;9.99;73.55;98294.13;5118689;27;39110;-82
2023/03/13 00:18:45;;;;;;;11.57;2.90;;;;;;;10.04;73.90;98292.00;5136125;27;41655;-82
2023/03/13 00:21:13;;;;;;;9.87;3.20;;;;;;;9.93;73.74;98268.94;5135939;27;42566;-82
2023/03/13 00:23:41;;;;;;;8.77;2.93;;;;;;;9.94;73.65;98270.63;5118751;27;41054;-81
2023/03/13 00:26:12;;;;;;;11.97;3.10;;;;;;;10.07;73.56;98292.66;5154351;27;39917;-82
2023/03/13 00:28:41;;;;;;;7.73;2.57;;;;;;;9.96;73.82;98270.53;5118753;27;42021;-82
2023/03/13 00:31:10;;;;;;;8.57;2.97;;;;;;;10.07;73.33;98286.50;5154257;27;42734;-82
2023/03/13 00:33:40;;;;;;;10.77;3.07;;;;;;;9.85;73.54;98252.78;5122506;27;41405;-83
2023/03/13 00:36:10;;;;;;;7.37;3.17;;;;;;;10.00;73.60;98264.09;5139519;27;40009;-82
2023/03/13 00:38:38;;;;;;;8.27;2.77;;;;;;;9.94;73.45;98259.22;5139540;27;41789;-82
2023/03/13 00:41:10;;;;;;;10.97;2.80;;;;;;;9.81;73.58;98238.06;5121804;27;41719;-81
2023/03/13 00:43:41;;;;;;;11.20;2.87;;;;;;;10.02;73.79;98267.44;5122337;27;41203;-82
2023/03/13 00:46:11;;;;;;;7.43;2.97;;;;;;;10.01;73.48;98268.44;5122329;27;39090;-81
2023/03/13 10:01:21;;;;;;;1.47;1.37;;;;;;;12.81;100.00;97832.75;5150893;27;20591;-81
2023/03/13 10:03:59;;;;;;;3.07;1.50;;;;;;;13.28;97.38;97818.75;5147446;27;40002;-88
2023/03/13 10:06:31;;;;;;;1.50;1.40;;;;;;;13.91;92.16;97834.31;5132779;27;40560;-84
2023/03/13 10:09:00;;;;;;;1.27;1.00;;;;;;;14.42;89.00;97830.47;5147659;27;43250;-83
2023/03/13 10:11:37;;;;;;;1.33;1.23;;;;;;;14.72;85.53;97831.03;5133439;27;42130;-79
2023/03/13 10:14:12;;;;;;;1.30;1.10;;;;;;;14.84;82.95;97809.50;5137958;27;41315;-81
2023/03/13 10:16:47;;;;;;;1.30;1.20;;;;;;;15.04;80.17;97824.44;5140373;27;41863;-80
2023/03/13 10:19:17;;;;;;;1.30;1.10;;;;;;;14.93;79.62;97792.66;5159724;27;41626;-85
2023/03/13 10:21:49;;;;;;;1.27;1.17;;;;;;;15.29;78.29;97821.06;5132922;27;40988;-81
2023/03/13 10:24:27;;;;;;;2.03;1.10;;;;;;;15.41;78.08;97830.53;5132341;27;39966;-81
2023/03/13 10:26:56;;;;;;;2.77;1.20;;;;;;;15.36;76.76;97800.78;5133020;27;40760;-78
2023/03/13 10:29:26;;;;;;;1.50;1.10;;;;;;;15.53;75.67;97815.13;5149688;27;42229;-86
2023/03/13 10:31:59;;;;;;;1.60;1.00;;;;;;;15.66;75.47;97834.31;5150281;27;43087;-82
2023/03/13 10:34:29;;;;;;;2.30;1.37;;;;;;;15.68;75.19;97826.97;5147387;27;39961;-80
2023/03/13 10:36:59;;;;;;;2.30;1.40;;;;;;;15.72;74.85;97828.34;5149529;27;41731;-79
2023/03/13 10:39:29;;;;;;;1.30;1.20;;;;;;;15.80;74.46;97819.59;5131717;27;43517;-81
2023/03/13 10:41:59;;;;;;;1.33;1.00;;;;;;;15.88;74.30;97816.97;5150841;27;42138;-85
2023/03/13 10:44:33;;;;;;;2.93;1.10;;;;;;;16.02;73.46;97760.34;5148687;27;39859;-82
2023/03/13 10:47:03;;;;;;;1.63;1.13;;;;;;;16.72;72.06;97795.81;5132519;27;40806;-86
2023/03/13 10:49:34;;;;;;;1.10;0.90;;;;;;;16.88;70.16;97741.59;5132625;27;41325;-83
2023/03/13 10:52:05;;;;;;;1.17;0.80;;;;;;;17.77;67.62;97786.44;5149713;27;41962;-83
2023/03/13 10:54:36;;;;;;;2.90;1.00;;;;;;;18.02;65.59;97752.44;5132133;27;39523;-85
2023/03/13 10:57:29;;;;;;;0.73;0.73;;;;;;;18.84;62.91;97802.16;5132451;27;40798;-83
2023/03/13 10:59:59;;;;;;;1.13;1.03;;;;;;;19.26;61.99;97796.44;5131144;27;43297;-88
2023/03/13 11:02:37;;;;;;;1.23;0.90;;;;;;;19.48;59.32;97773.31;5132909;27;41265;-84
2023/03/13 11:05:33;;;;;;;2.17;0.90;;;;;;;20.25;57.05;97815.22;5132238;27;39049;-86
2023/03/13 11:08:13;;;;;;;1.23;0.90;;;;;;;21.05;55.65;97828.84;5131342;27;42268;-83
2023/03/13 11:10:54;;;;;;;1.63;0.90;;;;;;;22.60;52.89;97823.84;5128899;27;42164;-81
2023/03/13 11:13:31;;;;;;;1.00;0.90;;;;;;;25.32;47.67;97844.81;5118015;27;42334;-83
2023/03/13 11:16:16;;;;;;;0.97;0.97;;;;;;;27.79;40.75;97849.72;5117743;27;39165;-85
2023/03/13 11:19:16;;;;;;;2.17;1.13;;;;;;;29.05;38.21;97802.22;5117659;27;41307;-89
2023/03/13 11:21:58;;;;;;;1.37;1.10;;;;;;;29.65;35.94;97852.63;5117337;27;41693;-82
2023/03/13 11:24:32;;;;;;;1.63;1.10;;;;;;;28.59;36.99;97861.91;5118068;27;41308;-86
2023/03/13 11:27:10;;;;;;;2.07;1.20;;;;;;;26.70;37.92;97788.84;5118175;27;39104;-85
2023/03/13 11:29:51;;;;;;;5.33;1.23;;;;;;;25.78;39.96;97827.53;5117780;27;40783;-80
2023/03/13 11:32:31;;;;;;;1.90;1.07;;;;;;;25.37;40.55;97798.91;5118027;27;42993;-88
2023/03/13 11:35:04;;;;;;;1.90;1.10;;;;;;;25.62;40.86;97817.16;5117836;27;41032;-82
2023/03/13 11:37:33;;;;;;;1.23;1.03;;;;;;;25.52;41.61;97795.09;5135172;27;40558;-91
2023/03/13 11:40:13;;;;;;;1.37;1.20;;;;;;;25.55;40.49;97789.25;5134799;27;42246;-83
2023/03/13 11:42:56;;;;;;;1.47;1.10;;;;;;;25.42;40.57;97780.13;5133769;27;43472;-88
2023/03/13 11:45:50;;;;;;;2.50;1.13;;;;;;;25.42;41.24;97774.72;5118126;27;41798;-89
2023/03/13 11:48:32;;;;;;;2.33;1.23;;;;;;;24.91;41.37;97765.72;5118651;27;38760;-85
2023/03/13 11:51:12;;;;;;;1.03;0.93;;;;;;;25.08;41.29;97758.81;5117719;27;41633;-85
2023/03/13 11:54:06;;;;;;;2.00;1.10;;;;;;;26.59;40.98;97780.56;5118281;27;42664;-85
2023/03/13 11:56:42;;;;;;;3.37;1.30;;;;;;;28.48;36.17;97799.25;5118755;27;41373;-84
2023/03/13 11:59:27;;;;;;;2.70;1.40;;;;;;;31.08;33.43;97802.09;5118111;27;39570;-85
2023/03/13 12:02:00;;;;;;;1.53;1.13;;;;;;;32.67;31.21;97802.75;5101835;27;40994;-87
2023/03/13 12:04:34;;;;;;;1.27;1.15;;;;;;;33.78;28.51;97817.09;5118524;27;42600;-87
2023/03/13 12:07:07;;;;;;;1.40;1.10;;;;;;;34.42;27.74;97824.13;5101006;27;40965;-90
2023/03/13 12:09:42;;;;;;;1.10;1.00;;;;;;;35.20;27.63;97808.91;5133951;27;40823;-86
2023/03/13 12:12:18;;;;;;;1.75;1.00;;;;;;;35.08;27.79;97791.88;5117332;27;40830;-84
2023/03/13 12:14:52;;;;;;;2.00;0.80;;;;;;;35.50;26.30;97796.16;5117798;27;41680;-89
2023/03/13 12:17:30;;;;;;;1.80;0.93;;;;;;;35.40;26.67;97779.69;5117986;27;41113;-83
2023/03/13 12:20:06;;;;;;;2.28;1.15;;;;;;;36.04;25.39;97778.81;5135685;27;41331;-86
2023/03/13 12:22:42;;;;;;;1.33;1.05;;;;;;;35.41;26.15;97764.81;5117149;27;41302;-88
2023/03/13 12:25:15;;;;;;;2.75;1.10;;;;;;;33.99;27.46;97749.31;5117754;27;43417;-86
2023/03/13 12:27:47;;;;;;;2.77;1.30;;;;;;;33.37;27.29;97752.16;5117289;27;41093;-84
2023/03/13 12:30:27;;;;;;;2.87;1.30;;;;;;;32.44;28.63;97744.47;5133674;27;39225;-81
2023/03/13 12:33:02;;;;;;;2.13;1.40;;;;;;;33.33;27.86;97729.09;5116947;27;42003;-81
2023/03/13 12:35:32;;;;;;;1.73;1.00;;;;;;;34.09;27.12;97737.50;5133362;27;42894;-80
2023/03/13 12:38:09;;;;;;;1.88;1.17;;;;;;;34.67;26.72;97710.53;5116160;27;41034;-81
2023/03/13 12:40:41;;;;;;;1.85;1.10;;;;;;;35.46;25.24;97740.84;5116125;27;38683;-81
2023/03/13 12:43:14;;;;;;;3.05;1.42;;;;;;;35.74;25.41;97728.28;5116291;27;40701;-83
2023/03/13 12:46:02;;;;;;;1.25;1.15;;;;;;;35.46;25.22;97690.44;5116093;27;42954;-83
2023/03/13 12:48:57;;;;;;;1.10;1.00;;;;;;;34.89;25.63;97711.03;5133437;27;41321;-82
2023/03/13 12:51:47;;;;;;;2.20;1.27;;;;;;;34.76;26.15;97692.38;5132926;27;38730;-82
2023/03/13 12:54:50;;;;;;;2.73;1.40;;;;;;;35.29;25.72;97686.13;5133066;27;41143;-81
2023/03/13 12:57:53;;;;;;;1.33;1.23;;;;;;;36.08;24.27;97697.19;5133127;27;41694;-82
2023/03/13 13:00:25;;;;;;;1.77;1.10;;;;;;;36.43;23.66;97696.06;5116232;27;41196;-82
2023/03/13 13:03:06;;;;;;;1.48;1.10;;;;;;;36.46;23.63;97673.44;5135522;27;39949;-83
2023/03/13 13:05:34;;;;;;;2.38;1.00;;;;;;;36.76;22.77;97691.59;5136847;27;42441;-83
2023/03/13 13:08:02;;;;;;;2.15;1.20;;;;;;;36.48;23.12;97674.75;5115485;27;41761;-82
2023/03/13 13:10:30;;;;;;;2.38;1.10;;;;;;;36.07;22.91;97651.44;5115064;27;42201;-82
2023/03/13 13:13:29;;;;;;;1.47;1.13;;;;;;;34.72;24.54;97669.25;5115460;27;40393;-83
2023/03/13 13:16:02;;;;;;;1.20;1.10;;;;;;;33.32;26.05;97647.84;5115439;27;40743;-83
2023/03/13 13:18:32;;;;;;;1.23;1.10;;;;;;;32.25;26.61;97633.63;5111402;27;41863;-84
2023/03/13 13:21:25;;;;;;;2.07;1.10;;;;;;;31.27;28.33;97624.03;5115186;27;42485;-81
2023/03/13 13:23:55;;;;;;;2.80;1.33;;;;;;;30.49;29.42;97589.69;5113874;27;39890;-83
2023/03/13 13:26:50;;;;;;;4.73;1.50;;;;;;;30.47;30.01;97602.78;5115061;27;40763;-83
2023/03/13 13:29:58;;;;;;;1.40;1.13;;;;;;;29.97;30.06;97599.09;5129180;27;42641;-87
2023/03/13 13:32:48;;;;;;;2.57;1.20;;;;;;;28.73;31.46;97587.31;5116359;27;40962;-86
2023/03/13 13:35:34;;;;;;;3.20;1.50;;;;;;;27.91;33.28;97566.75;5131241;27;39084;-82
2023/03/13 13:38:35;;;;;;;1.23;1.10;;;;;;;27.34;33.93;97558.25;5114989;27;42027;-84
2023/03/13 13:41:05;;;;;;;2.33;1.30;;;;;;;26.98;34.32;97546.50;5132489;27;43119;-83
2023/03/13 13:43:35;;;;;;;2.50;1.17;;;;;;;26.73;34.84;97537.63;5118319;27;41742;-86
2023/03/13 13:46:07;;;;;;;2.47;1.07;;;;;;;26.61;35.49;97534.88;5132971;27;39894;-84
2023/03/13 13:48:38;;;;;;;3.90;1.27;;;;;;;26.34;35.73;97534.41;5123029;27;41867;-82
2023/03/13 13:51:24;;;;;;;1.60;1.20;;;;;;;25.86;36.77;97504.47;5132502;27;44651;-88
2023/03/13 13:53:55;;;;;;;1.67;1.20;;;;;;;25.86;37.01;97503.63;5115328;27;41984;-83
2023/03/13 13:56:35;;;;;;;1.60;1.20;;;;;;;25.60;37.37;97488.44;5115223;27;38983;-82
2023/03/13 13:59:11;;;;;;;1.93;1.20;;;;;;;25.51;37.54;97487.09;5131910;27;40824;-84
2023/03/13 14:01:42;;;;;;;1.10;1.00;;;;;;;25.72;37.49;97492.09;5130933;27;44379;-84
2023/03/13 14:04:16;;;;;;;2.73;1.20;;;;;;;26.19;37.13;97486.97;5130823;27;43032;-85
2023/03/13 14:06:49;;;;;;;1.57;1.10;;;;;;;27.07;34.84;97481.78;5130574;27;40282;-85
2023/03/13 14:09:28;;;;;;;3.37;1.20;;;;;;;28.01;33.50;97499.75;5113980;27;41588;-81
2023/03/13 14:11:56;;;;;;;1.63;1.07;;;;;;;27.54;34.25;97497.06;5121097;27;41535;-80
2023/03/13 14:14:24;;;;;;;2.63;1.13;;;;;;;27.08;34.78;97491.56;5104668;27;41207;-81
2023/03/13 14:16:55;;;;;;;2.20;1.30;;;;;;;27.12;34.67;97487.34;5114531;27;38722;-84
2023/03/13 14:19:28;;;;;;;1.23;1.13;;;;;;;26.81;34.91;97467.53;5113907;27;41450;-79
2023/03/13 14:22:04;;;;;;;1.30;1.20;;;;;;;27.15;35.03;97451.53;5114679;27;41519;-81
2023/03/13 14:24:32;;;;;;;2.03;1.00;;;;;;;27.14;34.24;97442.56;5113860;27;41145;-80
2023/03/13 14:27:00;;;;;;;2.07;1.20;;;;;;;27.67;33.86;97441.63;5114662;27;38582;-84
2023/03/13 14:29:28;;;;;;;1.20;1.10;;;;;;;28.29;33.09;97446.44;5131328;27;41826;-84
2023/03/13 14:31:58;;;;;;;1.50;1.00;;;;;;;28.69;32.43;97446.34;5132200;27;42906;-79
2023/03/13 14:34:28;;;;;;;1.00;1.00;;;;;;;28.74;32.20;97430.09;5130930;27;41384;-81
2023/03/13 14:36:58;;;;;;;1.63;1.10;;;;;;;29.01;31.59;97422.13;5133324;27;39711;-80
2023/03/13 14:39:37;;;;;;;2.43;1.60;;;;;;;28.73;31.51;97426.56;5131122;27;41581;-81
2023/03/13 14:42:10;;;;;;;2.03;1.10;;;;;;;28.80;32.11;97413.63;5131625;27;43024;-84
2023/03/13 14:44:40;;;;;;;2.77;0.90;;;;;;;29.03;31.99;97396.28;5130714;27;40844;-83
2023/03/13 14:47:17;;;;;;;1.00;0.93;;;;;;;29.46;30.50;97401.03;5116487;27;38992;-79
2023/03/13 14:49:47;;;;;;;2.10;1.13;;;;;;;29.28;30.60;97384.94;5134728;27;40811;-85
2023/03/13 14:52:22;;;;;;;1.73;1.30;;;;;;;28.69;31.56;97389.13;5133960;27;42802;-82
2023/03/13 14:54:55;;;;;;;2.33;1.00;;;;;;;27.76;32.87;97387.66;5132413;27;42154;-81
2023/03/13 14:57:25;;;;;;;1.97;1.20;;;;;;;26.84;34.06;97358.38;5131514;27;40152;-79
2023/03/13 14:59:54;;;;;;;1.10;1.00;;;;;;;26.43;34.91;97363.91;5131391;27;42627;-79
2023/03/13 15:02:24;;;;;;;1.10;1.00;;;;;;;25.79;35.61;97343.72;5134424;27;44211;-84
2023/03/13 15:04:59;;;;;;;1.53;1.33;;;;;;;25.34;36.82;97338.63;5116649;27;41394;-84
2023/03/13 15:07:36;;;;;;;1.10;1.00;;;;;;;24.93;37.04;97297.81;5116954;27;39019;-87
2023/03/13 15:10:19;;;;;;;1.23;1.00;;;;;;;24.73;37.45;97286.34;5132836;27;41777;-83
2023/03/13 15:12:48;;;;;;;1.37;1.17;;;;;;;24.42;38.23;97288.09;5132586;27;42712;-78
2023/03/13 15:15:16;;;;;;;1.47;1.20;;;;;;;24.13;38.56;97264.34;5133860;27;43102;-81
2023/03/13 15:17:44;;;;;;;2.20;1.10;;;;;;;24.11;39.11;97255.66;5117043;27;39206;-87
2023/03/13 15:20:16;;;;;;;2.23;1.17;;;;;;;24.19;39.45;97274.31;5133781;27;42750;-87
2023/03/13 15:22:45;;;;;;;1.57;1.13;;;;;;;23.93;39.26;97265.34;5117297;27;42870;-82
2023/03/13 15:25:17;;;;;;;2.13;1.07;;;;;;;23.76;40.04;97280.44;5101506;28;41153;-80
2023/03/13 15:27:45;;;;;;;1.50;1.07;;;;;;;23.49;40.03;97258.09;5096488;28;39119;-82
2023/03/13 15:30:16;;;;;;;1.93;1.27;;;;;;;23.25;40.82;97245.34;5130813;27;40924;-83
2023/03/13 15:32:45;;;;;;;1.40;1.00;;;;;;;23.06;41.25;97257.06;5133708;27;42587;-85
2023/03/13 15:35:26;;;;;;;1.80;1.40;;;;;;;22.89;41.40;97233.25;5132940;27;42286;-80
2023/03/13 15:37:54;;;;;;;1.77;1.00;;;;;;;22.66;42.15;97207.75;5134132;27;40080;-80
2023/03/13 15:40:23;;;;;;;2.27;1.23;;;;;;;22.45;41.68;97208.84;5117890;27;42420;-78
2023/03/13 15:42:50;;;;;;;2.47;1.10;;;;;;;22.29;42.48;97222.78;5124450;27;41453;-81
2023/03/13 15:45:18;;;;;;;2.17;1.10;;;;;;;22.13;42.67;97221.34;5138428;27;43397;-79
2023/03/13 15:47:46;;;;;;;3.37;0.97;;;;;;;21.74;43.50;97154.78;5135036;27;41416;-86
2023/03/13 15:50:16;;;;;;;1.53;1.10;;;;;;;21.97;43.35;97186.69;5135086;27;41982;-81
2023/03/13 15:52:46;;;;;;;1.87;1.10;;;;;;;22.01;43.36;97187.94;5118410;27;44852;-81
2023/03/13 15:55:15;;;;;;;1.27;0.90;;;;;;;21.88;43.72;97183.41;5117757;27;41514;-82
2023/03/13 15:57:45;;;;;;;1.33;1.17;;;;;;;21.69;43.57;97185.03;5138127;27;39832;-85
2023/03/13 16:00:18;;;;;;;1.77;1.00;;;;;;;21.56;44.32;97168.84;5116921;27;41105;-87
2023/03/13 16:02:46;;;;;;;1.60;0.90;;;;;;;21.47;44.23;97175.50;5116932;27;41871;-85
2023/03/13 16:05:13;;;;;;;2.30;1.23;;;;;;;21.41;44.49;97171.75;5116314;27;40787;-79
2023/03/13 16:07:41;;;;;;;1.73;1.30;;;;;;;21.20;44.67;97136.09;5116276;27;38649;-78
2023/03/13 16:10:16;;;;;;;2.03;1.10;;;;;;;21.19;45.08;97151.41;5132280;27;40756;-79
2023/03/13 16:12:44;;;;;;;1.17;1.07;;;;;;;21.08;45.49;97135.81;5130350;27;43430;-80
2023/03/13 16:15:12;;;;;;;2.10;1.10;;;;;;;20.96;46.09;97118.63;5115138;27;42265;-78
2023/03/13 16:17:40;;;;;;;2.30;1.13;;;;;;;20.68;46.19;97105.28;5133084;27;38859;-80
2023/03/13 16:20:14;;;;;;;1.73;1.20;;;;;;;20.68;46.70;97121.44;5115014;27;41238;-78
2023/03/13 16:22:42;;;;;;;1.43;1.17;;;;;;;20.56;46.55;97109.59;5115698;27;42821;-78
2023/03/13 16:25:11;;;;;;;1.80;1.10;;;;;;;20.41;46.57;97099.81;5132135;27;42334;-83
2023/03/13 16:27:40;;;;;;;1.70;1.03;;;;;;;20.29;47.15;97087.94;5132973;27;38532;-80
2023/03/13 16:30:16;;;;;;;1.30;1.10;;;;;;;20.14;47.23;97075.69;5115055;27;40747;-80
2023/03/13 16:32:44;;;;;;;1.47;1.17;;;;;;;20.10;47.73;97069.88;5131329;27;42873;-78
2023/03/13 16:35:11;;;;;;;2.07;1.40;;;;;;;20.02;48.06;97068.19;5133363;27;42284;-80
2023/03/13 16:37:40;;;;;;;2.03;1.40;;;;;;;19.85;48.50;97045.34;5134291;27;40944;-78
2023/03/13 16:40:15;;;;;;;2.00;1.20;;;;;;;19.77;48.94;97058.94;5133424;27;42022;-78
2023/03/13 16:42:44;;;;;;;1.80;1.17;;;;;;;19.48;49.20;97025.06;5130746;27;42932;-78
2023/03/13 16:45:13;;;;;;;1.90;1.20;;;;;;;19.63;49.19;97041.09;5114767;27;41229;-77
2023/03/13 16:47:41;;;;;;;1.73;1.13;;;;;;;19.54;49.62;97029.66;5115045;27;40163;-79
2023/03/13 16:50:22;;;;;;;1.67;1.57;;;;;;;19.47;50.17;97020.72;5133135;27;42508;-80
2023/03/13 16:52:50;;;;;;;2.23;1.07;;;;;;;19.34;50.33;97012.56;5116228;27;41638;-79
2023/03/13 16:55:20;;;;;;;3.23;1.30;;;;;;;19.24;50.47;97025.50;5112100;27;42205;-82
2023/03/13 16:57:49;;;;;;;3.17;1.43;;;;;;;19.24;51.08;97191.88;5111938;28;38954;-79
2023/03/13 17:00:21;;;;;;;3.03;0.90;;;;;;;19.12;48.21;97213.03;5131025;27;41913;-80
2023/03/13 17:02:49;;;;;;;1.70;0.50;;;;;;;18.82;45.98;97243.59;5115253;27;41700;-80
2023/03/13 17:05:17;;;;;;;1.80;0.70;;;;;;;18.59;45.95;97235.66;5133066;27;42038;-80
2023/03/13 17:07:46;;;;;;;0.60;0.60;;;;;;;18.23;46.96;97214.09;5132438;27;40285;-81
2023/03/13 17:10:18;;;;;;;0.60;0.57;;;;;;;17.95;48.62;97195.13;5131342;27;40824;-85
2023/03/13 17:12:45;;;;;;;0.60;0.57;;;;;;;17.78;49.21;97182.94;5130013;27;42716;-79
2023/03/13 17:15:15;;;;;;;2.23;0.80;;;;;;;17.40;51.12;97140.06;5131762;27;41189;-80
2023/03/13 17:17:47;;;;;;;0.80;0.67;;;;;;;17.46;52.27;97152.72;5132531;27;38747;-79
2023/03/13 17:20:16;;;;;;;1.80;0.80;;;;;;;17.26;53.23;97172.13;5115050;27;41386;-80
2023/03/13 17:22:44;;;;;;;1.17;0.90;;;;;;;16.91;54.52;97139.63;5131046;27;43244;-84
2023/03/13 17:25:12;;;;;;;0.80;0.77;;;;;;;16.88;55.19;97175.56;5132960;27;42280;-84
2023/03/13 17:27:41;;;;;;;0.63;0.60;;;;;;;16.67;56.37;97121.06;5133613;27;39735;-84
2023/03/13 17:30:21;;;;;;;1.53;1.10;;;;;;;16.47;58.34;97108.09;5133335;27;40659;-82
2023/03/13 17:32:50;;;;;;;2.00;1.10;;;;;;;16.47;59.01;97133.97;5114455;27;41803;-81
2023/03/13 17:35:19;;;;;;;1.07;0.97;;;;;;;16.29;60.40;97120.06;5131775;27;42178;-82
2023/03/13 17:37:48;;;;;;;1.57;1.47;;;;;;;16.04;62.52;97141.50;5115074;27;39286;-82
2023/03/13 17:40:18;;;;;;;1.73;1.00;;;;;;;15.72;67.19;97113.06;5133718;27;41632;-82
2023/03/13 17:42:47;;;;;;;4.07;1.00;;;;;;;15.43;67.96;97105.59;5115874;27;41990;-82
2023/03/13 17:45:15;;;;;;;2.30;1.00;;;;;;;15.31;70.25;97120.28;5132418;27;42471;-82
2023/03/13 17:47:45;;;;;;;1.97;1.27;;;;;;;15.06;71.28;97122.09;5133766;27;40541;-83
2023/03/13 17:50:19;;;;;;;3.00;1.40;;;;;;;14.88;73.19;97123.25;5113581;27;40457;-84
2023/03/13 17:52:47;;;;;;;1.00;0.90;;;;;;;14.79;74.25;97153.56;5115371;27;41897;-84
2023/03/13 17:55:15;;;;;;;2.10;1.30;;;;;;;14.60;74.38;97126.19;5132362;27;42032;-80
2023/03/13 17:57:43;;;;;;;1.27;1.10;;;;;;;14.55;76.74;97111.72;5133531;27;39838;-77
2023/03/13 18:00:20;;;;;;;2.03;1.10;;;;;;;14.42;77.24;97106.84;5131455;27;42990;-81
2023/03/13 18:02:49;;;;;;;1.73;1.23;;;;;;;14.28;78.14;97120.75;5115235;27;42048;-82
2023/03/13 18:05:17;;;;;;;2.17;1.17;;;;;;;14.19;78.26;97116.41;5114877;27;40843;-82
2023/03/13 18:07:46;;;;;;;1.73;1.00;;;;;;;14.05;78.98;97101.03;5114976;27;38912;-82
2023/03/13 18:10:19;;;;;;;2.27;1.37;;;;;;;14.07;77.52;97112.34;5133485;27;41676;-80
2023/03/13 18:12:47;;;;;;;1.13;1.03;;;;;;;14.07;78.32;97112.34;5115119;27;42779;-81
2023/03/13 18:15:15;;;;;;;3.73;1.40;;;;;;;13.93;77.30;97098.66;5114884;27;41303;-81
2023/03/13 18:17:43;;;;;;;2.03;1.13;;;;;;;13.89;77.96;97078.69;5132124;27;40939;-83
2023/03/13 18:20:17;;;;;;;2.07;1.10;;;;;;;13.92;78.65;97102.31;5114917;27;40542;-79
2023/03/13 18:22:45;;;;;;;1.20;1.10;;;;;;;13.87;79.56;97085.97;5135274;27;41856;-80
2023/03/13 18:25:14;;;;;;;1.40;1.10;;;;;;;13.78;79.40;97086.09;5118802;27;42036;-82
2023/03/13 18:27:42;;;;;;;1.70;1.10;;;;;;;13.77;80.03;97084.44;5126850;27;39001;-79
2023/03/13 18:30:16;;;;;;;1.27;1.10;;;;;;;13.77;80.04;97085.28;5141863;27;42213;-82
2023/03/13 18:32:45;;;;;;;1.27;1.17;;;;;;;13.76;81.17;97059.66;5118769;27;41702;-83
2023/03/13 18:35:14;;;;;;;2.03;1.30;;;;;;;13.75;80.42;97049.19;5118422;27;41840;-79
2023/03/13 18:37:44;;;;;;;1.10;1.00;;;;;;;13.64;79.92;97013.06;5135887;27;39938;-83
2023/03/13 18:40:19;;;;;;;1.17;1.10;;;;;;;13.67;80.49;97015.41;5136039;27;42204;-82
2023/03/13 18:42:47;;;;;;;1.77;1.40;;;;;;;13.70;80.84;97040.84;5132593;27;43712;-83
2023/03/13 18:45:16;;;;;;;1.23;1.13;;;;;;;13.73;80.45;97067.94;5135426;27;41946;-83
2023/03/13 18:47:44;;;;;;;1.73;1.10;;;;;;;13.76;80.45;97075.63;5135574;27;39871;-84
2023/03/13 18:50:23;;;;;;;2.30;2.10;;;;;;;13.70;81.96;97089.56;5117955;27;40966;-83
2023/03/13 18:52:52;;;;;;;2.70;1.83;;;;;;;13.62;84.95;97074.38;5118463;27;42965;-79
2023/03/13 18:55:22;;;;;;;4.33;2.50;;;;;;;13.48;85.17;97032.41;5131429;27;41443;-78
2023/03/13 18:57:50;;;;;;;2.17;1.70;;;;;;;13.53;84.46;97039.94;5132647;27;39053;-80
2023/03/13 19:00:20;;;;;;;1.90;1.70;;;;;;;13.55;83.35;97048.59;5131405;27;40749;-78
2023/03/13 19:02:48;;;;;;;2.90;1.70;;;;;;;13.57;82.81;97055.44;5150682;27;42851;-78
2023/03/13 19:05:18;;;;;;;1.67;1.57;;;;;;;13.58;82.42;97056.25;5149676;27;42698;-78
2023/03/13 19:07:46;;;;;;;2.13;1.93;;;;;;;13.58;82.10;97053.59;5122954;27;38679;-82
2023/03/13 19:10:20;;;;;;;1.40;1.30;;;;;;;13.52;84.07;97030.28;5118659;27;42148;-83
2023/03/13 19:12:48;;;;;;;2.30;1.60;;;;;;;13.42;83.47;97008.31;5135426;27;41769;-81
2023/03/13 19:15:16;;;;;;;2.10;1.80;;;;;;;13.47;83.76;97014.00;5118783;27;42356;-81
2023/03/13 19:17:44;;;;;;;2.20;1.97;;;;;;;13.50;83.53;97021.63;5118575;27;39830;-83
2023/03/13 19:20:16;;;;;;;2.97;2.20;;;;;;;13.52;83.99;97040.91;5117665;27;40701;-79
2023/03/13 19:22:45;;;;;;;2.40;1.60;;;;;;;13.47;84.51;97053.88;5134721;27;41294;-86
2023/03/13 19:25:15;;;;;;;2.13;1.27;;;;;;;13.43;85.67;97034.75;5117805;27;41190;-85
2023/03/13 19:27:44;;;;;;;1.50;1.33;;;;;;;13.44;84.60;97035.56;5137793;27;39642;-80
2023/03/13 19:30:16;;;;;;;2.00;1.30;;;;;;;13.38;84.56;97025.56;5135773;27;42792;-82
2023/03/13 19:32:43;;;;;;;4.73;2.20;;;;;;;13.35;91.22;97010.78;5134382;27;41823;-81
2023/03/13 19:35:12;;;;;;;2.17;1.97;;;;;;;13.27;89.44;97032.81;5117577;27;41556;-77
2023/03/13 19:37:40;;;;;;;4.00;2.60;;;;;;;13.12;90.68;97015.75;5134326;27;40619;-83
2023/03/13 19:40:17;;;;;;;3.10;2.40;;;;;;;13.21;90.20;97041.44;5134318;27;42189;-78
2023/03/13 19:42:45;;;;;;;3.83;2.40;;;;;;;13.07;89.44;97018.03;5117010;27;42241;-84
2023/03/13 19:45:16;;;;;;;3.47;2.70;;;;;;;13.20;89.55;97045.06;5134592;27;41313;-81
2023/03/13 19:47:44;;;;;;;3.73;2.10;;;;;;;13.18;88.84;97044.41;5118280;27;40038;-81
2023/03/13 19:50:18;;;;;;;3.33;1.93;;;;;;;13.28;88.06;97063.72;5138150;27;41882;-84
2023/03/13 19:52:45;;;;;;;2.20;1.53;;;;;;;13.32;88.31;97080.22;5120318;27;43148;-84
2023/03/13 19:55:16;;;;;;;1.77;1.47;;;;;;;13.36;87.38;97080.69;5137722;27;41487;-81
2023/03/13 19:57:44;;;;;;;1.83;1.57;;;;;;;13.36;86.91;97080.69;5138827;27;39763;-84
2023/03/13 20:00:19;;;;;;;3.10;1.60;;;;;;;13.22;86.49;97058.22;5137923;27;41959;-82
2023/03/13 20:02:47;;;;;;;2.83;1.50;;;;;;;13.37;86.36;97079.72;5136206;27;42046;-82
2023/03/13 20:05:15;;;;;;;1.83;1.50;;;;;;;13.32;86.04;97072.22;5119284;27;41204;-79
2023/03/13 20:07:44;;;;;;;1.67;1.50;;;;;;;13.38;86.24;97084.03;5118709;27;41943;-84
2023/03/13 20:10:12;;;;;;;5.17;2.23;;;;;;;13.27;86.84;97071.84;5119377;27;40993;-83
2023/03/13 20:12:41;;;;;;;1.83;1.40;;;;;;;13.35;86.66;97090.53;5119097;27;45016;-85
2023/03/13 20:15:10;;;;;;;2.70;1.50;;;;;;;13.37;86.34;97119.59;5119542;27;41157;-79
2023/03/13 20:17:38;;;;;;;3.53;1.90;;;;;;;13.39;86.43;97146.88;5137808;27;40126;-88
2023/03/13 20:20:07;;;;;;;4.53;1.77;;;;;;;13.27;88.58;97141.81;5136446;27;41622;-83
2023/03/13 20:22:35;;;;;;;4.57;2.10;;;;;;;13.35;90.21;97170.28;5136155;27;42621;-85
2023/03/13 20:25:03;;;;;;;3.07;2.13;;;;;;;13.29;91.30;97179.72;5136318;27;43335;-80
2023/03/13 20:27:32;;;;;;;3.10;1.90;;;;;;;13.15;94.50;97158.97;5136051;27;38964;-84
2023/03/13 20:30:01;;;;;;;1.50;1.40;;;;;;;13.04;95.17;97167.16;5118027;27;40844;-82
2023/03/13 20:32:29;;;;;;;1.83;1.30;;;;;;;12.99;95.65;97168.59;5118854;27;41816;-82
2023/03/13 20:34:57;;;;;;;2.90;1.30;;;;;;;12.88;95.74;97185.59;5118241;27;41125;-85
2023/03/13 20:37:24;;;;;;;1.20;1.10;;;;;;;12.45;96.05;97133.22;5119255;27;38820;-82
2023/03/13 20:39:52;;;;;;;1.27;1.03;;;;;;;12.70;96.32;97184.75;5134769;27;41410;-83
2023/03/13 20:42:21;;;;;;;1.50;1.10;;;;;;;12.77;96.13;97148.63;5096441;27;43211;-81
2023/03/13 20:44:49;;;;;;;1.57;1.00;;;;;;;12.77;95.30;97143.31;5134046;27;41231;-85
2023/03/13 20:47:18;;;;;;;1.20;1.00;;;;;;;12.78;95.08;97160.94;5114420;28;40044;-87
2023/03/13 20:49:46;;;;;;;2.53;1.20;;;;;;;12.54;94.52;97119.88;5127850;27;40502;-82
2023/03/13 20:52:14;;;;;;;1.10;1.00;;;;;;;12.79;94.38;97157.28;5110590;27;42452;-86
2023/03/13 20:54:42;;;;;;;1.93;1.00;;;;;;;12.77;94.25;97164.56;5129524;27;43110;-86
2023/03/13 20:57:10;;;;;;;1.93;1.00;;;;;;;12.75;94.16;97155.91;5132811;27;39820;-83
2023/03/13 20:59:38;;;;;;;1.23;1.07;;;;;;;12.72;94.77;97149.09;5112445;27;41799;-82
2023/03/13 21:02:06;;;;;;;1.87;1.20;;;;;;;12.71;94.74;97165.19;5108072;27;43659;-81
2023/03/13 21:04:35;;;;;;;3.23;1.23;;;;;;;12.46;94.40;97143.69;5109386;27;41231;-84
2023/03/13 21:07:04;;;;;;;1.73;0.90;;;;;;;12.59;94.63;97162.75;5114847;27;40143;-84
2023/03/13 21:09:33;;;;;;;2.20;1.10;;;;;;;12.60;93.94;97160.94;5114313;27;41924;-86
2023/03/13 21:12:01;;;;;;;2.23;0.90;;;;;;;12.50;93.70;97122.97;5113098;27;41564;-85